createdAt,value
2023-05-22T00:00:47.197Z,16.3
2023-05-22T00:20:47.609Z,16
2023-05-22T00:40:46.294Z,15.8
2023-05-22T01:00:47.323Z,15.3
2023-05-22T01:20:48.688Z,15.2
2023-05-22T01:40:46.841Z,14.9
2023-05-22T02:00:47.548Z,14.7
2023-05-22T02:20:46.367Z,14.5
2023-05-22T02:40:46.807Z,14.4
2023-05-22T03:00:46.651Z,14.2
2023-05-22T03:20:47.260Z,14
2023-05-22T03:40:47.164Z,13.8
2023-05-22T04:01:06.320Z,13.5
2023-05-22T04:21:07.797Z,13.1
2023-05-22T04:41:11.746Z,13.2
2023-05-22T05:01:09.464Z,13.4
2023-05-22T05:21:07.118Z,13.3
2023-05-22T05:41:09.638Z,13.7
2023-05-22T06:01:08.838Z,14.3
2023-05-22T06:21:06.403Z,14.3
2023-05-22T06:41:13.726Z,14.8
2023-05-22T07:01:06.000Z,14.7
2023-05-22T07:21:13.558Z,15
2023-05-22T07:41:06.813Z,15.5
2023-05-22T08:01:09.466Z,15.9
2023-05-22T08:21:08.928Z,16.5
2023-05-22T08:41:15.825Z,17.2
2023-05-22T09:01:09.963Z,17.2
2023-05-22T09:21:18.087Z,17.7
2023-05-22T09:41:12.112Z,18.3
2023-05-22T10:01:11.984Z,18.3
2023-05-22T10:21:10.559Z,18.8
2023-05-22T10:41:13.523Z,19.1
2023-05-22T11:01:12.899Z,20
2023-05-22T11:21:12.298Z,20.5
2023-05-22T11:41:07.134Z,20.5
2023-05-22T12:01:08.266Z,21
2023-05-22T12:21:12.819Z,22.1
2023-05-22T12:41:06.799Z,22
2023-05-22T13:01:07.321Z,22.6
2023-05-22T13:21:07.601Z,23.3
2023-05-22T13:41:17.990Z,24.5
2023-05-22T14:01:09.729Z,24.4
2023-05-22T14:21:07.296Z,25
2023-05-22T14:41:09.606Z,25.5
2023-05-22T15:01:08.271Z,26.4
2023-05-22T15:21:08.071Z,26.9
2023-05-22T15:41:10.109Z,24.9
2023-05-22T16:01:11.932Z,24.7
2023-05-22T16:21:06.032Z,24.6
2023-05-22T16:41:07.454Z,24.5
2023-05-22T17:01:17.939Z,24.8
2023-05-22T17:21:08.376Z,24.8
2023-05-22T17:41:10.589Z,24.3
2023-05-22T18:01:09.376Z,24.6
2023-05-22T18:21:10.244Z,23.9
2023-05-22T18:41:06.529Z,23.9
2023-05-22T19:01:12.034Z,23.6
2023-05-22T19:20:49.866Z,22.8
2023-05-22T19:40:50.311Z,22.4
2023-05-22T20:00:50.490Z,22
2023-05-22T20:20:49.625Z,21.6
2023-05-22T20:40:46.753Z,21.2
2023-05-22T21:00:48.237Z,20.8
2023-05-22T21:20:49.803Z,20.1
2023-05-22T21:40:46.001Z,19.5
2023-05-22T22:00:57.470Z,19.2
2023-05-22T22:21:06.321Z,18.9
2023-05-22T22:40:48.091Z,18.7
2023-05-22T23:00:49.362Z,18.6
2023-05-22T23:20:48.208Z,18.5
2023-05-22T23:40:46.567Z,18.2
